sensor_id;sensor_type;location;lat;lon;timestamp;pressure;altitude;pressure_sealevel;temperature;humidity
62946;BME280;52164;52.212;-1.010;2022-11-20T00:02:24;100142.43;;;5.99;80.37
62946;BME280;52164;52.212;-1.010;2022-11-20T00:04:50;100141.91;;;6.00;80.22
62946;BME280;52164;52.212;-1.010;2022-11-20T00:07:17;100143.33;;;6.01;80.53
62946;BME280;52164;52.212;-1.010;2022-11-20T00:09:42;100137.66;;;6.01;80.31
62946;BME280;52164;52.212;-1.010;2022-11-20T00:12:08;100137.99;;;5.98;80.53
62946;BME280;52164;52.212;-1.010;2022-11-20T00:14:34;100138.70;;;5.98;80.38
62946;BME280;52164;52.212;-1.010;2022-11-20T00:16:59;100138.17;;;5.99;80.78
62946;BME280;52164;52.212;-1.010;2022-11-20T00:19:25;100140.48;;;6.00;80.43
62946;BME280;52164;52.212;-1.010;2022-11-20T00:21:50;100137.70;;;6.03;80.62
62946;BME280;52164;52.212;-1.010;2022-11-20T00:24:18;100134.31;;;6.02;80.47
62946;BME280;52164;52.212;-1.010;2022-11-20T00:26:44;100130.94;;;6.00;80.39
62946;BME280;52164;52.212;-1.010;2022-11-20T00:29:10;100126.49;;;5.99;80.47
62946;BME280;52164;52.212;-1.010;2022-11-20T00:31:36;100121.70;;;5.98;80.43
62946;BME280;52164;52.212;-1.010;2022-11-20T00:34:01;100113.19;;;5.97;80.44
62946;BME280;52164;52.212;-1.010;2022-11-20T00:36:29;100114.20;;;5.96;80.59
62946;BME280;52164;52.212;-1.010;2022-11-20T00:38:57;100106.73;;;5.95;80.44
62946;BME280;52164;52.212;-1.010;2022-11-20T00:41:24;100104.83;;;5.96;80.62
62946;BME280;52164;52.212;-1.010;2022-11-20T00:43:52;100099.88;;;5.97;80.65
62946;BME280;52164;52.212;-1.010;2022-11-20T00:46:20;100096.35;;;5.98;80.47
62946;BME280;52164;52.212;-1.010;2022-11-20T00:48:46;100094.05;;;5.97;80.27
62946;BME280;52164;52.212;-1.010;2022-11-20T00:51:14;100092.80;;;5.97;80.41
62946;BME280;52164;52.212;-1.010;2022-11-20T00:53:39;100088.68;;;5.95;80.18
62946;BME280;52164;52.212;-1.010;2022-11-20T00:56:07;100093.70;;;5.97;80.29
62946;BME280;52164;52.212;-1.010;2022-11-20T00:58:34;100092.30;;;5.99;80.40
62946;BME280;52164;52.212;-1.010;2022-11-20T01:01:06;100090.21;;;6.03;80.53
62946;BME280;52164;52.212;-1.010;2022-11-20T01:03:34;100084.77;;;6.07;80.39
62946;BME280;52164;52.212;-1.010;2022-11-20T01:06:02;100082.16;;;6.11;80.32
62946;BME280;52164;52.212;-1.010;2022-11-20T01:08:31;100073.18;;;6.17;80.44
62946;BME280;52164;52.212;-1.010;2022-11-20T01:10:59;100071.45;;;6.20;80.23
62946;BME280;52164;52.212;-1.010;2022-11-20T01:13:25;100068.29;;;6.23;79.87
62946;BME280;52164;52.212;-1.010;2022-11-20T01:18:34;100064.20;;;6.23;79.82
62946;BME280;52164;52.212;-1.010;2022-11-20T01:21:03;100062.06;;;6.22;79.97
62946;BME280;52164;52.212;-1.010;2022-11-20T01:23:31;100064.73;;;6.22;79.95
62946;BME280;52164;52.212;-1.010;2022-11-20T01:26:00;100059.74;;;6.20;80.11
62946;BME280;52164;52.212;-1.010;2022-11-20T01:28:27;100060.10;;;6.19;79.88
62946;BME280;52164;52.212;-1.010;2022-11-20T01:30:53;100061.69;;;6.20;79.88
62946;BME280;52164;52.212;-1.010;2022-11-20T01:33:18;100060.27;;;6.19;79.83
62946;BME280;52164;52.212;-1.010;2022-11-20T01:35:44;100060.60;;;6.16;79.64
62946;BME280;52164;52.212;-1.010;2022-11-20T01:38:09;100058.09;;;6.13;79.72
62946;BME280;52164;52.212;-1.010;2022-11-20T01:40:35;100053.11;;;6.11;79.94
62946;BME280;52164;52.212;-1.010;2022-11-20T01:43:13;100043.55;;;6.12;79.86
62946;BME280;52164;52.212;-1.010;2022-11-20T01:46:12;100039.33;;;6.14;80.15
62946;BME280;52164;52.212;-1.010;2022-11-20T01:51:19;100028.73;;;6.21;80.42
62946;BME280;52164;52.212;-1.010;2022-11-20T01:53:46;100023.81;;;6.23;80.46
62946;BME280;52164;52.212;-1.010;2022-11-20T01:56:13;100022.77;;;6.25;80.53
62946;BME280;52164;52.212;-1.010;2022-11-20T01:58:45;100024.39;;;6.27;80.58
62946;BME280;52164;52.212;-1.010;2022-11-20T02:01:13;100019.27;;;6.29;80.66
62946;BME280;52164;52.212;-1.010;2022-11-20T02:03:39;100019.27;;;6.31;80.75
62946;BME280;52164;52.212;-1.010;2022-11-20T02:06:11;100013.26;;;6.32;80.59
62946;BME280;52164;52.212;-1.010;2022-11-20T02:08:40;100012.71;;;6.31;80.72
62946;BME280;52164;52.212;-1.010;2022-11-20T02:11:06;100011.98;;;6.28;80.59
62946;BME280;52164;52.212;-1.010;2022-11-20T02:13:33;100009.31;;;6.27;80.38
62946;BME280;52164;52.212;-1.010;2022-11-20T02:16:20;100007.55;;;6.27;80.62
62946;BME280;52164;52.212;-1.010;2022-11-20T02:18:46;99999.58;;;6.27;80.65
62946;BME280;52164;52.212;-1.010;2022-11-20T02:21:14;99994.27;;;6.28;80.97
62946;BME280;52164;52.212;-1.010;2022-11-20T02:23:59;99991.44;;;6.29;80.83
62946;BME280;52164;52.212;-1.010;2022-11-20T02:26:28;99987.17;;;6.28;80.85
62946;BME280;52164;52.212;-1.010;2022-11-20T02:28:54;99981.15;;;6.29;81.26
62946;BME280;52164;52.212;-1.010;2022-11-20T02:31:20;99975.66;;;6.30;81.28
62946;BME280;52164;52.212;-1.010;2022-11-20T02:33:45;99966.11;;;6.31;81.07
62946;BME280;52164;52.212;-1.010;2022-11-20T02:36:14;99962.41;;;6.33;81.12
62946;BME280;52164;52.212;-1.010;2022-11-20T02:38:40;99955.48;;;6.34;80.75
62946;BME280;52164;52.212;-1.010;2022-11-20T02:41:06;99953.19;;;6.33;81.23
62946;BME280;52164;52.212;-1.010;2022-11-20T02:43:31;99950.89;;;6.32;80.92
62946;BME280;52164;52.212;-1.010;2022-11-20T02:45:57;99946.26;;;6.30;80.73
62946;BME280;52164;52.212;-1.010;2022-11-20T02:48:22;99950.31;;;6.27;80.77
62946;BME280;52164;52.212;-1.010;2022-11-20T02:50:48;99935.75;;;6.24;80.96
62946;BME280;52164;52.212;-1.010;2022-11-20T02:53:13;99933.06;;;6.22;80.96
62946;BME280;52164;52.212;-1.010;2022-11-20T02:55:39;99930.75;;;6.20;81.38
62946;BME280;52164;52.212;-1.010;2022-11-20T02:58:04;99924.52;;;6.17;81.21
62946;BME280;52164;52.212;-1.010;2022-11-20T03:00:30;99920.80;;;6.15;81.63
62946;BME280;52164;52.212;-1.010;2022-11-20T03:02:57;99915.12;;;6.14;81.36
62946;BME280;52164;52.212;-1.010;2022-11-20T03:05:22;99907.84;;;6.12;81.41
62946;BME280;52164;52.212;-1.010;2022-11-20T03:07:48;99901.45;;;6.10;81.70
62946;BME280;52164;52.212;-1.010;2022-11-20T03:10:16;99898.79;;;6.10;81.69
62946;BME280;52164;52.212;-1.010;2022-11-20T03:12:42;99895.43;;;6.11;81.84
62946;BME280;52164;52.212;-1.010;2022-11-20T03:15:08;99892.95;;;6.12;81.77
62946;BME280;52164;52.212;-1.010;2022-11-20T03:17:34;99888.54;;;6.14;81.81
62946;BME280;52164;52.212;-1.010;2022-11-20T03:20:00;99882.71;;;6.17;81.93
62946;BME280;52164;52.212;-1.010;2022-11-20T03:22:25;99873.89;;;6.20;81.95
62946;BME280;52164;52.212;-1.010;2022-11-20T03:24:51;99869.61;;;6.20;81.79
62946;BME280;52164;52.212;-1.010;2022-11-20T03:27:17;99865.02;;;6.19;81.98
62946;BME280;52164;52.212;-1.010;2022-11-20T03:29:42;99862.88;;;6.18;82.01
62946;BME280;52164;52.212;-1.010;2022-11-20T03:32:08;99858.79;;;6.16;81.96
62946;BME280;52164;52.212;-1.010;2022-11-20T03:34:33;99854.17;;;6.15;82.18
62946;BME280;52164;52.212;-1.010;2022-11-20T03:36:59;99851.51;;;6.14;82.42
62946;BME280;52164;52.212;-1.010;2022-11-20T03:39:24;99848.15;;;6.13;82.56
62946;BME280;52164;52.212;-1.010;2022-11-20T03:41:49;99844.60;;;6.13;82.61
62946;BME280;52164;52.212;-1.010;2022-11-20T03:44:15;99839.66;;;6.16;82.86
62946;BME280;52164;52.212;-1.010;2022-11-20T03:46:40;99839.30;;;6.17;82.69
62946;BME280;52164;52.212;-1.010;2022-11-20T03:49:06;99833.65;;;6.19;82.80
62946;BME280;52164;52.212;-1.010;2022-11-20T03:51:34;99825.14;;;6.20;83.05
62946;BME280;52164;52.212;-1.010;2022-11-20T03:54:03;99816.30;;;6.21;83.13
62946;BME280;52164;52.212;-1.010;2022-11-20T03:56:31;99808.70;;;6.23;83.10
62946;BME280;52164;52.212;-1.010;2022-11-20T03:58:57;99801.25;;;6.25;83.08
62946;BME280;52164;52.212;-1.010;2022-11-20T04:01:28;99795.25;;;6.27;83.22
62946;BME280;52164;52.212;-1.010;2022-11-20T04:03:55;99792.96;;;6.29;83.15
62946;BME280;52164;52.212;-1.010;2022-11-20T04:06:25;99785.87;;;6.29;83.17
62946;BME280;52164;52.212;-1.010;2022-11-20T04:08:53;99778.09;;;6.31;83.31
62946;BME280;52164;52.212;-1.010;2022-11-20T04:11:25;99773.30;;;6.32;83.07
62946;BME280;52164;52.212;-1.010;2022-11-20T04:13:54;99771.70;;;6.31;83.33
62946;BME280;52164;52.212;-1.010;2022-11-20T04:16:21;99770.45;;;6.31;83.27
62946;BME280;52164;52.212;-1.010;2022-11-20T04:18:51;99768.85;;;6.27;83.17
62946;BME280;52164;52.212;-1.010;2022-11-20T04:21:17;99761.74;;;6.26;83.31
62946;BME280;52164;52.212;-1.010;2022-11-20T04:23:42;99760.33;;;6.25;83.52
62946;BME280;52164;52.212;-1.010;2022-11-20T04:26:10;99757.30;;;6.23;83.34
62946;BME280;52164;52.212;-1.010;2022-11-20T04:28:37;99757.66;;;6.24;83.82
62946;BME280;52164;52.212;-1.010;2022-11-20T04:31:09;99754.85;;;6.26;83.80
62946;BME280;52164;52.212;-1.010;2022-11-20T04:33:36;99748.48;;;6.30;84.06
62946;BME280;52164;52.212;-1.010;2022-11-20T04:36:06;99744.06;;;6.34;83.78
62946;BME280;52164;52.212;-1.010;2022-11-20T04:38:36;99737.35;;;6.38;84.30
62946;BME280;52164;52.212;-1.010;2022-11-20T04:41:05;99738.79;;;6.43;84.16
62946;BME280;52164;52.212;-1.010;2022-11-20T04:43:31;99733.13;;;6.45;84.15
62946;BME280;52164;52.212;-1.010;2022-11-20T04:45:58;99729.77;;;6.46;84.05
62946;BME280;52164;52.212;-1.010;2022-11-20T04:48:28;99730.12;;;6.47;84.00
62946;BME280;52164;52.212;-1.010;2022-11-20T04:50:54;99723.92;;;6.47;83.93
62946;BME280;52164;52.212;-1.010;2022-11-20T04:53:21;99719.84;;;6.46;84.09
62946;BME280;52164;52.212;-1.010;2022-11-20T04:55:47;99724.10;;;6.48;84.52
62946;BME280;52164;52.212;-1.010;2022-11-20T04:58:13;99725.35;;;6.50;84.55
62946;BME280;52164;52.212;-1.010;2022-11-20T05:00:39;99719.86;;;6.52;84.29
62946;BME280;52164;52.212;-1.010;2022-11-20T05:03:04;99715.27;;;6.54;84.48
62946;BME280;52164;52.212;-1.010;2022-11-20T05:05:30;99712.80;;;6.57;84.61
62946;BME280;52164;52.212;-1.010;2022-11-20T05:07:57;99715.10;;;6.59;84.72
62946;BME280;52164;52.212;-1.010;2022-11-20T05:10:23;99712.80;;;6.60;84.64
62946;BME280;52164;52.212;-1.010;2022-11-20T05:12:52;99711.91;;;6.61;84.53
62946;BME280;52164;52.212;-1.010;2022-11-20T05:15:18;99710.49;;;6.60;84.72
62946;BME280;52164;52.212;-1.010;2022-11-20T05:17:48;99702.52;;;6.60;84.70
62946;BME280;52164;52.212;-1.010;2022-11-20T05:20:14;99701.27;;;6.61;84.51
62946;BME280;52164;52.212;-1.010;2022-11-20T05:22:40;99705.17;;;6.60;84.60
62946;BME280;52164;52.212;-1.010;2022-11-20T05:25:05;99712.44;;;6.59;84.34
62946;BME280;52164;52.212;-1.010;2022-11-20T05:27:31;99712.80;;;6.59;84.55
62946;BME280;52164;52.212;-1.010;2022-11-20T05:29:56;99715.46;;;6.59;84.71
62946;BME280;52164;52.212;-1.010;2022-11-20T05:32:22;99712.44;;;6.60;84.48
62946;BME280;52164;52.212;-1.010;2022-11-20T05:34:51;99710.48;;;6.60;85.21
62946;BME280;52164;52.212;-1.010;2022-11-20T05:37:16;99716.70;;;6.61;85.07
62946;BME280;52164;52.212;-1.010;2022-11-20T05:39:42;99715.64;;;6.63;84.95
62946;BME280;52164;52.212;-1.010;2022-11-20T05:42:08;99714.05;;;6.62;85.01
62946;BME280;52164;52.212;-1.010;2022-11-20T05:44:53;99706.26;;;6.66;85.22
62946;BME280;52164;52.212;-1.010;2022-11-20T05:47:19;99702.01;;;6.67;85.17
62946;BME280;52164;52.212;-1.010;2022-11-20T05:49:44;99692.95;;;6.66;85.32
62946;BME280;52164;52.212;-1.010;2022-11-20T05:52:10;99694.02;;;6.66;85.42
62946;BME280;52164;52.212;-1.010;2022-11-20T05:54:35;99698.80;;;6.65;85.45
62946;BME280;52164;52.212;-1.010;2022-11-20T05:57:01;99707.84;;;6.66;85.64
62946;BME280;52164;52.212;-1.010;2022-11-20T05:59:26;99706.63;;;6.67;85.52
62946;BME280;52164;52.212;-1.010;2022-11-20T06:01:52;99705.73;;;6.68;85.45
62946;BME280;52164;52.212;-1.010;2022-11-20T06:04:17;99705.20;;;6.69;85.46
62946;BME280;52164;52.212;-1.010;2022-11-20T06:06:42;99702.89;;;6.69;85.54
62946;BME280;52164;52.212;-1.010;2022-11-20T06:09:08;99701.31;;;6.70;85.69
62946;BME280;52164;52.212;-1.010;2022-11-20T06:11:33;99699.88;;;6.70;85.91
62946;BME280;52164;52.212;-1.010;2022-11-20T06:13:59;99702.19;;;6.72;85.66
62946;BME280;52164;52.212;-1.010;2022-11-20T06:16:24;99697.58;;;6.74;85.73
62946;BME280;52164;52.212;-1.010;2022-11-20T06:18:50;99693.86;;;6.75;85.86
62946;BME280;52164;52.212;-1.010;2022-11-20T06:21:18;99696.53;;;6.77;85.93
62946;BME280;52164;52.212;-1.010;2022-11-20T06:23:44;99688.90;;;6.77;85.83
62946;BME280;52164;52.212;-1.010;2022-11-20T06:26:16;99686.07;;;6.76;85.87
62946;BME280;52164;52.212;-1.010;2022-11-20T06:28:42;99682.52;;;6.76;86.33
62946;BME280;52164;52.212;-1.010;2022-11-20T06:31:10;99679.67;;;6.77;85.97
62946;BME280;52164;52.212;-1.010;2022-11-20T06:33:36;99678.27;;;6.77;86.24
62946;BME280;52164;52.212;-1.010;2022-11-20T06:36:02;99675.60;;;6.77;86.33
62946;BME280;52164;52.212;-1.010;2022-11-20T06:38:28;99678.08;;;6.75;85.86
62946;BME280;52164;52.212;-1.010;2022-11-20T06:40:54;99674.17;;;6.73;86.22
62946;BME280;52164;52.212;-1.010;2022-11-20T06:43:20;99673.13;;;6.70;86.14
62946;BME280;52164;52.212;-1.010;2022-11-20T06:45:46;99673.11;;;6.71;86.50
62946;BME280;52164;52.212;-1.010;2022-11-20T06:48:11;99673.82;;;6.71;86.22
62946;BME280;52164;52.212;-1.010;2022-11-20T06:50:37;99676.66;;;6.70;86.30
62946;BME280;52164;52.212;-1.010;2022-11-20T06:53:03;99675.42;;;6.69;85.93
62946;BME280;52164;52.212;-1.010;2022-11-20T06:55:30;99675.23;;;6.66;86.29
62946;BME280;52164;52.212;-1.010;2022-11-20T06:57:57;99675.93;;;6.63;86.32
62946;BME280;52164;52.212;-1.010;2022-11-20T07:00:23;99674.67;;;6.62;86.30
62946;BME280;52164;52.212;-1.010;2022-11-20T07:02:48;99675.73;;;6.61;86.32
62946;BME280;52164;52.212;-1.010;2022-11-20T07:05:14;99676.27;;;6.59;86.66
62946;BME280;52164;52.212;-1.010;2022-11-20T07:07:39;99680.86;;;6.58;86.49
62946;BME280;52164;52.212;-1.010;2022-11-20T07:10:05;99679.81;;;6.56;86.41
62946;BME280;52164;52.212;-1.010;2022-11-20T07:12:31;99674.48;;;6.55;86.29
62946;BME280;52164;52.212;-1.010;2022-11-20T07:14:56;99677.14;;;6.53;86.49
62946;BME280;52164;52.212;-1.010;2022-11-20T07:17:22;99680.86;;;6.51;86.29
62946;BME280;52164;52.212;-1.010;2022-11-20T07:19:47;99687.77;;;6.50;86.68
62946;BME280;52164;52.212;-1.010;2022-11-20T07:22:13;99690.59;;;6.50;86.58
62946;BME280;52164;52.212;-1.010;2022-11-20T07:24:39;99695.02;;;6.49;86.47
62946;BME280;52164;52.212;-1.010;2022-11-20T07:27:04;99696.10;;;6.48;86.49
62946;BME280;52164;52.212;-1.010;2022-11-20T07:29:30;99694.67;;;6.48;86.78
62946;BME280;52164;52.212;-1.010;2022-11-20T07:31:56;99696.45;;;6.48;86.33
62946;BME280;52164;52.212;-1.010;2022-11-20T07:34:22;99693.79;;;6.47;86.45
62946;BME280;52164;52.212;-1.010;2022-11-20T07:36:47;99697.68;;;6.46;86.40
62946;BME280;52164;52.212;-1.010;2022-11-20T07:39:13;99692.55;;;6.46;86.41
62946;BME280;52164;52.212;-1.010;2022-11-20T07:41:43;99692.02;;;6.46;86.36
62946;BME280;52164;52.212;-1.010;2022-11-20T07:44:08;99694.31;;;6.46;86.61
62946;BME280;52164;52.212;-1.010;2022-11-20T07:46:33;99692.02;;;6.46;86.26
62946;BME280;52164;52.212;-1.010;2022-11-20T07:48:59;99692.36;;;6.46;86.05
62946;BME280;52164;52.212;-1.010;2022-11-20T07:51:24;99697.32;;;6.47;86.27
62946;BME280;52164;52.212;-1.010;2022-11-20T07:53:52;99699.81;;;6.48;86.06
62946;BME280;52164;52.212;-1.010;2022-11-20T07:56:18;99700.52;;;6.49;85.94
62946;BME280;52164;52.212;-1.010;2022-11-20T07:58:43;99706.92;;;6.51;86.22
62946;BME280;52164;52.212;-1.010;2022-11-20T08:01:09;99714.38;;;6.54;86.07
62946;BME280;52164;52.212;-1.010;2022-11-20T08:03:35;99722.36;;;6.57;85.88
62946;BME280;52164;52.212;-1.010;2022-11-20T08:06:03;99723.61;;;6.60;85.96
62946;BME280;52164;52.212;-1.010;2022-11-20T08:08:29;99727.18;;;6.63;85.84
62946;BME280;52164;52.212;-1.010;2022-11-20T08:10:58;99730.71;;;6.65;85.70
62946;BME280;52164;52.212;-1.010;2022-11-20T08:13:43;99728.42;;;6.68;85.68
62946;BME280;52164;52.212;-1.010;2022-11-20T08:16:29;99732.87;;;6.70;85.88
62946;BME280;52164;52.212;-1.010;2022-11-20T08:18:54;99733.23;;;6.75;85.71
62946;BME280;52164;52.212;-1.010;2022-11-20T08:21:20;99739.11;;;6.78;85.66
62946;BME280;52164;52.212;-1.010;2022-11-20T08:23:46;99735.21;;;6.84;85.40
62946;BME280;52164;52.212;-1.010;2022-11-20T08:26:11;99734.51;;;6.87;85.34
62946;BME280;52164;52.212;-1.010;2022-11-20T08:28:37;99737.89;;;6.91;85.13
62946;BME280;52164;52.212;-1.010;2022-11-20T08:31:03;99741.27;;;6.95;85.23
62946;BME280;52164;52.212;-1.010;2022-11-20T08:33:29;99746.61;;;6.99;85.08
62946;BME280;52164;52.212;-1.010;2022-11-20T08:36:00;99740.76;;;7.02;85.17
62946;BME280;52164;52.212;-1.010;2022-11-20T08:38:26;99742.18;;;7.05;84.74
62946;BME280;52164;52.212;-1.010;2022-11-20T08:40:51;99739.70;;;7.08;84.82
62946;BME280;52164;52.212;-1.010;2022-11-20T08:43:41;99737.94;;;7.09;84.71
62946;BME280;52164;52.212;-1.010;2022-11-20T08:46:06;99732.43;;;7.11;84.38
62946;BME280;52164;52.212;-1.010;2022-11-20T08:48:32;99730.13;;;7.15;84.62
62946;BME280;52164;52.212;-1.010;2022-11-20T08:50:58;99728.18;;;7.20;84.27
62946;BME280;52164;52.212;-1.010;2022-11-20T08:53:25;99729.25;;;7.26;84.30
62946;BME280;52164;52.212;-1.010;2022-11-20T08:55:50;99725.35;;;7.32;84.39
62946;BME280;52164;52.212;-1.010;2022-11-20T08:58:16;99724.11;;;7.37;84.21
62946;BME280;52164;52.212;-1.010;2022-11-20T09:00:41;99727.66;;;7.44;84.08
62946;BME280;52164;52.212;-1.010;2022-11-20T09:03:07;99732.98;;;7.50;84.44
62946;BME280;52164;52.212;-1.010;2022-11-20T09:05:32;99735.13;;;7.57;83.89
62946;BME280;52164;52.212;-1.010;2022-11-20T09:07:58;99737.96;;;7.64;83.76
62946;BME280;52164;52.212;-1.010;2022-11-20T09:10:24;99734.95;;;7.68;83.70
62946;BME280;52164;52.212;-1.010;2022-11-20T09:12:51;99735.27;;;7.74;83.55
62946;BME280;52164;52.212;-1.010;2022-11-20T09:15:18;99733.33;;;7.78;83.44
62946;BME280;52164;52.212;-1.010;2022-11-20T09:18:01;99740.09;;;7.79;82.97
62946;BME280;52164;52.212;-1.010;2022-11-20T09:20:29;99746.30;;;7.78;83.22
62946;BME280;52164;52.212;-1.010;2022-11-20T09:22:55;99746.48;;;7.74;82.85
62946;BME280;52164;52.212;-1.010;2022-11-20T09:25:21;99749.50;;;7.73;82.74
62946;BME280;52164;52.212;-1.010;2022-11-20T09:27:47;99752.16;;;7.74;83.05
62946;BME280;52164;52.212;-1.010;2022-11-20T09:30:14;99750.75;;;7.77;82.76
62946;BME280;52164;52.212;-1.010;2022-11-20T09:32:40;99746.30;;;7.80;83.03
62946;BME280;52164;52.212;-1.010;2022-11-20T09:35:06;99745.23;;;7.83;82.57
62946;BME280;52164;52.212;-1.010;2022-11-20T09:37:31;99745.41;;;7.88;82.51
62946;BME280;52164;52.212;-1.010;2022-11-20T09:39:57;99749.30;;;7.95;82.65
62946;BME280;52164;52.212;-1.010;2022-11-20T09:42:37;99752.30;;;8.03;82.09
62946;BME280;52164;52.212;-1.010;2022-11-20T09:50:26;99756.02;;;8.14;81.75
62946;BME280;52164;52.212;-1.010;2022-11-20T09:51:57;99752.80;;;8.19;81.20
62946;BME280;52164;52.212;-1.010;2022-11-20T09:52:09;99757.80;;;8.08;81.91
62946;BME280;52164;52.212;-1.010;2022-11-20T09:54:18;99750.83;;;8.26;80.91
62946;BME280;52164;52.212;-1.010;2022-11-20T09:56:49;99747.95;;;8.35;81.04
62946;BME280;52164;52.212;-1.010;2022-11-20T09:59:26;99749.54;;;8.41;80.96
62946;BME280;52164;52.212;-1.010;2022-11-20T10:01:55;99744.58;;;8.45;80.59
62946;BME280;52164;52.212;-1.010;2022-11-20T10:04:21;99744.40;;;8.48;80.52
62946;BME280;52164;52.212;-1.010;2022-11-20T10:07:11;99736.20;;;8.50;80.69
62946;BME280;52164;52.212;-1.010;2022-11-20T10:09:42;99737.98;;;8.50;80.18
62946;BME280;52164;52.212;-1.010;2022-11-20T10:15:09;99734.23;;;8.57;79.97
62946;BME280;52164;52.212;-1.010;2022-11-20T10:18:59;99734.73;;;8.62;79.62
62946;BME280;52164;52.212;-1.010;2022-11-20T10:21:14;99735.42;;;8.67;79.61
62946;BME280;52164;52.212;-1.010;2022-11-20T10:24:06;99732.16;;;8.76;79.50
62946;BME280;52164;52.212;-1.010;2022-11-20T10:26:44;99734.95;;;8.86;79.65
62946;BME280;52164;52.212;-1.010;2022-11-20T10:29:20;99735.45;;;8.94;79.21
62946;BME280;52164;52.212;-1.010;2022-11-20T10:31:54;99738.98;;;9.01;79.04
62946;BME280;52164;52.212;-1.010;2022-11-20T10:36:54;99729.42;;;9.20;78.45
62946;BME280;52164;52.212;-1.010;2022-11-20T10:39:33;99731.52;;;9.25;78.24
62946;BME280;52164;52.212;-1.010;2022-11-20T10:42:00;99735.42;;;9.26;77.80
62946;BME280;52164;52.212;-1.010;2022-11-20T10:44:27;99740.95;;;9.24;77.07
62946;BME280;52164;52.212;-1.010;2022-11-20T10:47:18;99733.16;;;9.17;77.28
62946;BME280;52164;52.212;-1.010;2022-11-20T10:49:47;99739.07;;;9.13;77.50
62946;BME280;52164;52.212;-1.010;2022-11-20T10:53:08;99750.84;;;9.10;77.52
62946;BME280;52164;52.212;-1.010;2022-11-20T10:55:40;99751.06;;;9.03;77.43
62946;BME280;52164;52.212;-1.010;2022-11-20T10:58:13;99745.22;;;8.97;77.43
62946;BME280;52164;52.212;-1.010;2022-11-20T11:00:39;99742.74;;;8.94;77.24
62946;BME280;52164;52.212;-1.010;2022-11-20T11:05:53;99747.90;;;8.96;77.20
62946;BME280;52164;52.212;-1.010;2022-11-20T11:08:21;99736.52;;;8.95;76.97
62946;BME280;52164;52.212;-1.010;2022-11-20T11:10:52;99734.36;;;8.97;76.98
62946;BME280;52164;52.212;-1.010;2022-11-20T11:13:22;99742.52;;;9.00;76.88
62946;BME280;52164;52.212;-1.010;2022-11-20T11:15:48;99742.70;;;9.01;76.60
62946;BME280;52164;52.212;-1.010;2022-11-20T11:18:31;99745.36;;;9.05;76.48
62946;BME280;52164;52.212;-1.010;2022-11-20T11:20:59;99751.76;;;9.06;76.36
62946;BME280;52164;52.212;-1.010;2022-11-20T11:26:01;99754.23;;;9.08;76.21
62946;BME280;52164;52.212;-1.010;2022-11-20T11:28:28;99755.11;;;9.10;75.56
62946;BME280;52164;52.212;-1.010;2022-11-20T11:30:54;99761.14;;;9.12;75.89
62946;BME280;52164;52.212;-1.010;2022-11-20T11:33:24;99761.66;;;9.17;75.96
62946;BME280;52164;52.212;-1.010;2022-11-20T11:35:53;99763.40;;;9.23;75.33
62946;BME280;52164;52.212;-1.010;2022-11-20T11:38:27;99758.02;;;9.28;75.08
62946;BME280;52164;52.212;-1.010;2022-11-20T11:40:54;99756.95;;;9.29;75.16
62946;BME280;52164;52.212;-1.010;2022-11-20T11:43:24;99761.76;;;9.28;75.23
62946;BME280;52164;52.212;-1.010;2022-11-20T11:48:59;99757.35;;;9.24;74.62
62946;BME280;52164;52.212;-1.010;2022-11-20T11:51:35;99751.14;;;9.19;74.57
62946;BME280;52164;52.212;-1.010;2022-11-20T11:54:10;99745.79;;;9.20;74.82
62946;BME280;52164;52.212;-1.010;2022-11-20T11:56:39;99749.34;;;9.21;74.49
62946;BME280;52164;52.212;-1.010;2022-11-20T11:59:06;99740.44;;;9.23;74.09
62946;BME280;52164;52.212;-1.010;2022-11-20T12:04:50;99742.17;;;9.30;74.47
62946;BME280;52164;52.212;-1.010;2022-11-20T12:07:10;99737.85;;;9.35;74.50
62946;BME280;52164;52.212;-1.010;2022-11-20T12:09:42;99744.25;;;9.38;73.89
62946;BME280;52164;52.212;-1.010;2022-11-20T12:12:13;99738.88;;;9.41;73.96
62946;BME280;52164;52.212;-1.010;2022-11-20T12:14:46;99733.17;;;9.43;73.97
62946;BME280;52164;52.212;-1.010;2022-11-20T12:17:14;99737.05;;;9.47;74.09
62946;BME280;52164;52.212;-1.010;2022-11-20T12:19:40;99741.48;;;9.51;74.11
62946;BME280;52164;52.212;-1.010;2022-11-20T12:23:17;99744.48;;;9.52;73.76
62946;BME280;52164;52.212;-1.010;2022-11-20T12:24:57;99741.09;;;9.52;73.28
62946;BME280;52164;52.212;-1.010;2022-11-20T12:27:54;99735.20;;;9.55;72.87
62946;BME280;52164;52.212;-1.010;2022-11-20T12:30:27;99733.23;;;9.58;72.01
62946;BME280;52164;52.212;-1.010;2022-11-20T12:33:48;99739.46;;;9.59;71.89
62946;BME280;52164;52.212;-1.010;2022-11-20T12:36:07;99739.80;;;9.60;71.77
62946;BME280;52164;52.212;-1.010;2022-11-20T12:41:39;99743.83;;;9.66;71.99
62946;BME280;52164;52.212;-1.010;2022-11-20T12:41:59;99746.08;;;9.75;72.01
62946;BME280;52164;52.212;-1.010;2022-11-20T12:48:17;99750.06;;;9.88;71.51
62946;BME280;52164;52.212;-1.010;2022-11-20T12:51:03;99748.55;;;9.97;71.72
62946;BME280;52164;52.212;-1.010;2022-11-20T12:54:05;99752.63;;;9.98;71.63
62946;BME280;52164;52.212;-1.010;2022-11-20T12:57:00;99748.49;;;10.02;71.07
62946;BME280;52164;52.212;-1.010;2022-11-20T12:59:52;99745.08;;;10.04;71.01
62946;BME280;52164;52.212;-1.010;2022-11-20T13:05:49;99742.20;;;10.09;70.78
62946;BME280;52164;52.212;-1.010;2022-11-20T13:07:03;99743.09;;;10.08;70.93
62946;BME280;52164;52.212;-1.010;2022-11-20T13:08:27;99741.46;;;10.09;70.82
62946;BME280;52164;52.212;-1.010;2022-11-20T13:16:26;99735.19;;;10.12;70.55
62946;BME280;52164;52.212;-1.010;2022-11-20T13:18:56;99732.01;;;10.11;70.12
62946;BME280;52164;52.212;-1.010;2022-11-20T13:21:35;99736.66;;;10.10;70.23
62946;BME280;52164;52.212;-1.010;2022-11-20T13:27:05;99735.71;;;9.97;69.87
62946;BME280;52164;52.212;-1.010;2022-11-20T13:29:32;99736.32;;;9.89;69.60
62946;BME280;52164;52.212;-1.010;2022-11-20T13:32:14;99734.75;;;9.85;69.94
62946;BME280;52164;52.212;-1.010;2022-11-20T13:34:59;99734.42;;;9.82;70.10
62946;BME280;52164;52.212;-1.010;2022-11-20T13:37:36;99732.48;;;9.81;70.34
62946;BME280;52164;52.212;-1.010;2022-11-20T13:40:22;99733.55;;;9.81;70.63
62946;BME280;52164;52.212;-1.010;2022-11-20T13:43:07;99729.11;;;9.79;70.60
62946;BME280;52164;52.212;-1.010;2022-11-20T13:45:36;99726.63;;;9.78;70.88
62946;BME280;52164;52.212;-1.010;2022-11-20T13:48:04;99723.06;;;9.77;70.73